Poquetanuck, Connecticut
Current Conditions -  °F | °C
As of 2:52 PM on Thursday 30 Oct 2014 (Local Time) from KIJD Reporting Station
Broken Clouds Broken Clouds  
Wind Chill: 56°   Ceiling: 6000
Heat Index: 56°   Visibility: 10mi
Dew Point: 35°   Wind: 8mph
Humidity: 45%   Direction: 310°NW
Pressure: 29.93"   Gusts: NA
Location:  41.5523°N, 72.0921°W
Report Text: KIJD 301852Z AUTO 31007KT 10SM BKN060 13/02 A2993 RMK AO2 SLP136 T01330017
Loading
Personal Weather Stations






























Interactive Weather Map
Tropical Storm Tracking
New forecast layout! Learn more

10-Day Weather Forecast

Advertisements
Track Severe Weather on mobile